sensor_id;sensor_type;location;lat;lon;timestamp;P1;durP1;ratioP1;P2;durP2;ratioP2
10987;SDS011;5547;42.672;23.230;2023-04-15T00:02:26;8.60;;;5.15;;
10987;SDS011;5547;42.672;23.230;2023-04-15T00:05:28;7.67;;;5.07;;
10987;SDS011;5547;42.672;23.230;2023-04-15T00:08:30;8.43;;;5.22;;
10987;SDS011;5547;42.672;23.230;2023-04-15T00:11:30;6.63;;;4.43;;
10987;SDS011;5547;42.672;23.230;2023-04-15T00:14:30;7.00;;;4.40;;
10987;SDS011;5547;42.672;23.230;2023-04-15T00:17:31;6.53;;;4.57;;
10987;SDS011;5547;42.672;23.230;2023-04-15T00:20:32;7.57;;;4.40;;
10987;SDS011;5547;42.672;23.230;2023-04-15T00:23:33;4.95;;;3.30;;
10987;SDS011;5547;42.672;23.230;2023-04-15T00:26:35;5.03;;;3.35;;
10987;SDS011;5547;42.672;23.230;2023-04-15T00:29:35;5.93;;;3.33;;
10987;SDS011;5547;42.672;23.230;2023-04-15T00:32:36;4.53;;;3.17;;
10987;SDS011;5547;42.672;23.230;2023-04-15T00:35:36;4.77;;;2.97;;
10987;SDS011;5547;42.672;23.230;2023-04-15T00:38:37;3.47;;;2.28;;
10987;SDS011;5547;42.672;23.230;2023-04-15T00:41:38;6.00;;;2.40;;
10987;SDS011;5547;42.672;23.230;2023-04-15T00:44:38;4.10;;;2.30;;
10987;SDS011;5547;42.672;23.230;2023-04-15T00:47:40;4.03;;;2.50;;
10987;SDS011;5547;42.672;23.230;2023-04-15T00:50:41;5.25;;;2.92;;
10987;SDS011;5547;42.672;23.230;2023-04-15T00:53:42;6.20;;;2.60;;
10987;SDS011;5547;42.672;23.230;2023-04-15T00:56:42;3.45;;;2.55;;
10987;SDS011;5547;42.672;23.230;2023-04-15T00:59:43;4.93;;;3.10;;
10987;SDS011;5547;42.672;23.230;2023-04-15T01:02:44;5.90;;;4.40;;
10987;SDS011;5547;42.672;23.230;2023-04-15T01:05:44;5.78;;;3.20;;
10987;SDS011;5547;42.672;23.230;2023-04-15T01:08:45;5.38;;;3.40;;
10987;SDS011;5547;42.672;23.230;2023-04-15T01:11:46;5.00;;;3.20;;
10987;SDS011;5547;42.672;23.230;2023-04-15T01:14:46;6.10;;;4.63;;
10987;SDS011;5547;42.672;23.230;2023-04-15T01:17:47;7.35;;;4.43;;
10987;SDS011;5547;42.672;23.230;2023-04-15T01:20:47;7.10;;;4.20;;
10987;SDS011;5547;42.672;23.230;2023-04-15T01:23:48;6.50;;;4.43;;
10987;SDS011;5547;42.672;23.230;2023-04-15T01:26:52;7.20;;;4.30;;
10987;SDS011;5547;42.672;23.230;2023-04-15T01:29:53;7.68;;;4.55;;
10987;SDS011;5547;42.672;23.230;2023-04-15T01:32:53;7.60;;;4.40;;
10987;SDS011;5547;42.672;23.230;2023-04-15T01:35:53;5.37;;;4.00;;
10987;SDS011;5547;42.672;23.230;2023-04-15T01:38:54;6.25;;;3.60;;
10987;SDS011;5547;42.672;23.230;2023-04-15T01:41:56;5.70;;;3.35;;
10987;SDS011;5547;42.672;23.230;2023-04-15T01:44:57;6.28;;;3.42;;
10987;SDS011;5547;42.672;23.230;2023-04-15T01:47:57;4.20;;;3.13;;
10987;SDS011;5547;42.672;23.230;2023-04-15T01:50:57;5.83;;;3.33;;
10987;SDS011;5547;42.672;23.230;2023-04-15T01:53:58;5.55;;;3.53;;
10987;SDS011;5547;42.672;23.230;2023-04-15T01:56:58;5.90;;;3.80;;
10987;SDS011;5547;42.672;23.230;2023-04-15T01:59:59;7.30;;;5.37;;
10987;SDS011;5547;42.672;23.230;2023-04-15T02:02:59;8.07;;;4.30;;
10987;SDS011;5547;42.672;23.230;2023-04-15T02:06:00;6.70;;;3.87;;
10987;SDS011;5547;42.672;23.230;2023-04-15T02:09:00;5.23;;;3.10;;
10987;SDS011;5547;42.672;23.230;2023-04-15T02:12:01;6.53;;;4.40;;
10987;SDS011;5547;42.672;23.230;2023-04-15T02:15:01;7.30;;;3.92;;
10987;SDS011;5547;42.672;23.230;2023-04-15T02:18:01;5.97;;;4.47;;
10987;SDS011;5547;42.672;23.230;2023-04-15T02:21:03;9.23;;;4.65;;
10987;SDS011;5547;42.672;23.230;2023-04-15T02:24:06;11.40;;;7.80;;
10987;SDS011;5547;42.672;23.230;2023-04-15T02:27:06;10.20;;;7.43;;
10987;SDS011;5547;42.672;23.230;2023-04-15T02:30:06;11.67;;;7.50;;
10987;SDS011;5547;42.672;23.230;2023-04-15T02:33:08;8.43;;;6.00;;
10987;SDS011;5547;42.672;23.230;2023-04-15T02:36:09;17.90;;;13.70;;
10987;SDS011;5547;42.672;23.230;2023-04-15T02:39:11;10.23;;;5.90;;
10987;SDS011;5547;42.672;23.230;2023-04-15T02:42:13;9.45;;;5.90;;
10987;SDS011;5547;42.672;23.230;2023-04-15T02:45:14;5.80;;;4.20;;
10987;SDS011;5547;42.672;23.230;2023-04-15T02:48:14;6.53;;;3.73;;
10987;SDS011;5547;42.672;23.230;2023-04-15T02:51:17;5.03;;;3.38;;
10987;SDS011;5547;42.672;23.230;2023-04-15T02:54:19;4.63;;;2.90;;
10987;SDS011;5547;42.672;23.230;2023-04-15T02:57:21;6.55;;;4.55;;
10987;SDS011;5547;42.672;23.230;2023-04-15T03:00:22;8.97;;;4.77;;
10987;SDS011;5547;42.672;23.230;2023-04-15T03:03:24;7.57;;;4.80;;
10987;SDS011;5547;42.672;23.230;2023-04-15T03:06:25;8.80;;;6.03;;
10987;SDS011;5547;42.672;23.230;2023-04-15T03:09:26;9.03;;;5.20;;
10987;SDS011;5547;42.672;23.230;2023-04-15T03:12:26;13.50;;;8.00;;
10987;SDS011;5547;42.672;23.230;2023-04-15T03:15:27;10.00;;;6.80;;
10987;SDS011;5547;42.672;23.230;2023-04-15T03:18:27;7.07;;;4.60;;
10987;SDS011;5547;42.672;23.230;2023-04-15T03:21:28;5.27;;;3.70;;
10987;SDS011;5547;42.672;23.230;2023-04-15T03:24:28;5.53;;;3.60;;
10987;SDS011;5547;42.672;23.230;2023-04-15T03:27:29;9.18;;;5.38;;
10987;SDS011;5547;42.672;23.230;2023-04-15T03:30:30;8.77;;;5.60;;
10987;SDS011;5547;42.672;23.230;2023-04-15T03:33:30;7.40;;;5.67;;
10987;SDS011;5547;42.672;23.230;2023-04-15T03:36:30;8.32;;;6.20;;
10987;SDS011;5547;42.672;23.230;2023-04-15T03:39:34;9.73;;;7.07;;
10987;SDS011;5547;42.672;23.230;2023-04-15T03:42:34;9.90;;;6.53;;
10987;SDS011;5547;42.672;23.230;2023-04-15T03:45:35;15.68;;;10.38;;
10987;SDS011;5547;42.672;23.230;2023-04-15T03:48:35;15.90;;;10.10;;
10987;SDS011;5547;42.672;23.230;2023-04-15T03:51:36;27.00;;;14.70;;
10987;SDS011;5547;42.672;23.230;2023-04-15T03:54:36;27.00;;;12.70;;
10987;SDS011;5547;42.672;23.230;2023-04-15T03:57:36;17.55;;;9.07;;
10987;SDS011;5547;42.672;23.230;2023-04-15T04:00:38;11.38;;;7.40;;
10987;SDS011;5547;42.672;23.230;2023-04-15T04:03:39;15.57;;;9.32;;
10987;SDS011;5547;42.672;23.230;2023-04-15T04:06:39;7.80;;;5.63;;
10987;SDS011;5547;42.672;23.230;2023-04-15T04:09:40;10.47;;;6.50;;
10987;SDS011;5547;42.672;23.230;2023-04-15T04:12:41;8.63;;;7.10;;
10987;SDS011;5547;42.672;23.230;2023-04-15T04:15:41;8.87;;;6.77;;
10987;SDS011;5547;42.672;23.230;2023-04-15T04:18:41;7.80;;;5.60;;
10987;SDS011;5547;42.672;23.230;2023-04-15T04:21:42;8.73;;;5.45;;
10987;SDS011;5547;42.672;23.230;2023-04-15T04:24:42;7.77;;;5.60;;
10987;SDS011;5547;42.672;23.230;2023-04-15T04:27:43;7.97;;;5.90;;
10987;SDS011;5547;42.672;23.230;2023-04-15T04:30:44;7.20;;;5.70;;
10987;SDS011;5547;42.672;23.230;2023-04-15T04:33:44;7.97;;;5.57;;
10987;SDS011;5547;42.672;23.230;2023-04-15T04:36:45;6.73;;;4.30;;
10987;SDS011;5547;42.672;23.230;2023-04-15T04:39:45;7.37;;;4.50;;
10987;SDS011;5547;42.672;23.230;2023-04-15T04:42:46;6.07;;;4.23;;
10987;SDS011;5547;42.672;23.230;2023-04-15T04:45:46;6.47;;;4.72;;
10987;SDS011;5547;42.672;23.230;2023-04-15T04:48:47;5.17;;;3.93;;
10987;SDS011;5547;42.672;23.230;2023-04-15T04:51:47;6.70;;;4.43;;
10987;SDS011;5547;42.672;23.230;2023-04-15T04:54:48;8.27;;;5.33;;
10987;SDS011;5547;42.672;23.230;2023-04-15T04:57:48;8.97;;;5.53;;
10987;SDS011;5547;42.672;23.230;2023-04-15T05:00:48;7.00;;;4.60;;
10987;SDS011;5547;42.672;23.230;2023-04-15T05:03:49;5.90;;;4.30;;
10987;SDS011;5547;42.672;23.230;2023-04-15T05:06:50;7.60;;;5.20;;
10987;SDS011;5547;42.672;23.230;2023-04-15T05:09:50;7.57;;;4.80;;
10987;SDS011;5547;42.672;23.230;2023-04-15T05:12:51;7.43;;;4.50;;
10987;SDS011;5547;42.672;23.230;2023-04-15T05:15:51;10.37;;;5.80;;
10987;SDS011;5547;42.672;23.230;2023-04-15T05:18:52;8.00;;;4.47;;
10987;SDS011;5547;42.672;23.230;2023-04-15T05:21:52;7.10;;;5.45;;
10987;SDS011;5547;42.672;23.230;2023-04-15T05:24:53;9.70;;;6.37;;
10987;SDS011;5547;42.672;23.230;2023-04-15T05:27:53;7.53;;;5.23;;
10987;SDS011;5547;42.672;23.230;2023-04-15T05:30:54;7.73;;;4.80;;
10987;SDS011;5547;42.672;23.230;2023-04-15T05:33:54;7.97;;;5.38;;
10987;SDS011;5547;42.672;23.230;2023-04-15T05:36:54;7.77;;;5.13;;
10987;SDS011;5547;42.672;23.230;2023-04-15T05:39:55;8.57;;;5.50;;
10987;SDS011;5547;42.672;23.230;2023-04-15T05:42:56;8.30;;;6.18;;
10987;SDS011;5547;42.672;23.230;2023-04-15T05:45:56;9.43;;;6.73;;
10987;SDS011;5547;42.672;23.230;2023-04-15T05:48:56;9.90;;;7.07;;
10987;SDS011;5547;42.672;23.230;2023-04-15T05:51:57;9.17;;;6.40;;
10987;SDS011;5547;42.672;23.230;2023-04-15T05:54:57;11.23;;;7.90;;
10987;SDS011;5547;42.672;23.230;2023-04-15T05:57:57;10.53;;;6.27;;
10987;SDS011;5547;42.672;23.230;2023-04-15T06:00:58;10.13;;;6.80;;
10987;SDS011;5547;42.672;23.230;2023-04-15T06:03:59;8.57;;;5.63;;
10987;SDS011;5547;42.672;23.230;2023-04-15T06:06:59;4.53;;;2.47;;
10987;SDS011;5547;42.672;23.230;2023-04-15T06:10:00;3.83;;;1.55;;
10987;SDS011;5547;42.672;23.230;2023-04-15T06:13:03;3.40;;;1.10;;
10987;SDS011;5547;42.672;23.230;2023-04-15T06:16:04;3.63;;;1.20;;
10987;SDS011;5547;42.672;23.230;2023-04-15T06:19:05;2.45;;;1.20;;
10987;SDS011;5547;42.672;23.230;2023-04-15T06:22:05;2.73;;;1.00;;
10987;SDS011;5547;42.672;23.230;2023-04-15T06:25:06;3.10;;;0.90;;
10987;SDS011;5547;42.672;23.230;2023-04-15T06:28:08;2.35;;;1.02;;
10987;SDS011;5547;42.672;23.230;2023-04-15T06:31:08;3.70;;;1.00;;
10987;SDS011;5547;42.672;23.230;2023-04-15T06:34:09;3.33;;;1.10;;
10987;SDS011;5547;42.672;23.230;2023-04-15T06:37:10;2.25;;;0.90;;
10987;SDS011;5547;42.672;23.230;2023-04-15T06:40:14;2.60;;;1.00;;
10987;SDS011;5547;42.672;23.230;2023-04-15T06:43:16;2.92;;;1.10;;
10987;SDS011;5547;42.672;23.230;2023-04-15T06:46:16;4.75;;;1.40;;
10987;SDS011;5547;42.672;23.230;2023-04-15T06:49:16;3.47;;;1.10;;
10987;SDS011;5547;42.672;23.230;2023-04-15T06:52:17;2.87;;;1.10;;
10987;SDS011;5547;42.672;23.230;2023-04-15T06:55:17;2.90;;;0.90;;
10987;SDS011;5547;42.672;23.230;2023-04-15T06:58:17;3.40;;;1.00;;
10987;SDS011;5547;42.672;23.230;2023-04-15T07:01:18;2.93;;;0.93;;
10987;SDS011;5547;42.672;23.230;2023-04-15T07:04:19;2.67;;;1.00;;
10987;SDS011;5547;42.672;23.230;2023-04-15T07:07:19;3.50;;;1.17;;
10987;SDS011;5547;42.672;23.230;2023-04-15T07:10:20;2.57;;;0.97;;
10987;SDS011;5547;42.672;23.230;2023-04-15T07:13:20;3.47;;;1.08;;
10987;SDS011;5547;42.672;23.230;2023-04-15T07:16:21;2.20;;;0.88;;
10987;SDS011;5547;42.672;23.230;2023-04-15T07:19:22;3.33;;;1.03;;
10987;SDS011;5547;42.672;23.230;2023-04-15T07:22:22;3.70;;;1.10;;
10987;SDS011;5547;42.672;23.230;2023-04-15T07:25:23;3.27;;;1.17;;
10987;SDS011;5547;42.672;23.230;2023-04-15T07:28:23;3.77;;;0.97;;
10987;SDS011;5547;42.672;23.230;2023-04-15T07:31:23;3.00;;;1.10;;
10987;SDS011;5547;42.672;23.230;2023-04-15T07:34:24;3.80;;;1.23;;
10987;SDS011;5547;42.672;23.230;2023-04-15T07:37:24;3.53;;;1.42;;
10987;SDS011;5547;42.672;23.230;2023-04-15T07:40:25;2.97;;;1.38;;
10987;SDS011;5547;42.672;23.230;2023-04-15T07:43:26;2.40;;;1.10;;
10987;SDS011;5547;42.672;23.230;2023-04-15T07:46:26;3.63;;;1.00;;
10987;SDS011;5547;42.672;23.230;2023-04-15T07:49:27;2.88;;;1.10;;
10987;SDS011;5547;42.672;23.230;2023-04-15T07:52:27;3.37;;;1.17;;
10987;SDS011;5547;42.672;23.230;2023-04-15T07:55:28;3.67;;;1.13;;
10987;SDS011;5547;42.672;23.230;2023-04-15T07:58:29;1.83;;;1.10;;
10987;SDS011;5547;42.672;23.230;2023-04-15T08:01:30;2.95;;;1.10;;
10987;SDS011;5547;42.672;23.230;2023-04-15T08:04:30;3.00;;;1.17;;
10987;SDS011;5547;42.672;23.230;2023-04-15T08:07:31;5.30;;;1.53;;
10987;SDS011;5547;42.672;23.230;2023-04-15T08:10:31;2.03;;;1.20;;
10987;SDS011;5547;42.672;23.230;2023-04-15T08:13:32;1.92;;;1.00;;
10987;SDS011;5547;42.672;23.230;2023-04-15T08:16:32;3.50;;;1.10;;
10987;SDS011;5547;42.672;23.230;2023-04-15T08:19:33;2.60;;;1.10;;
10987;SDS011;5547;42.672;23.230;2023-04-15T08:22:33;3.43;;;1.20;;
10987;SDS011;5547;42.672;23.230;2023-04-15T08:25:34;3.03;;;1.40;;
10987;SDS011;5547;42.672;23.230;2023-04-15T08:28:36;2.57;;;1.33;;
10987;SDS011;5547;42.672;23.230;2023-04-15T08:31:37;3.17;;;1.10;;
10987;SDS011;5547;42.672;23.230;2023-04-15T08:34:38;1.83;;;0.70;;
10987;SDS011;5547;42.672;23.230;2023-04-15T08:37:38;3.30;;;0.87;;
10987;SDS011;5547;42.672;23.230;2023-04-15T08:40:42;2.57;;;1.20;;
10987;SDS011;5547;42.672;23.230;2023-04-15T08:43:57;3.25;;;1.00;;
10987;SDS011;5547;42.672;23.230;2023-04-15T08:47:00;3.33;;;0.80;;
10987;SDS011;5547;42.672;23.230;2023-04-15T08:50:02;2.42;;;0.70;;
10987;SDS011;5547;42.672;23.230;2023-04-15T08:53:03;2.10;;;0.73;;
10987;SDS011;5547;42.672;23.230;2023-04-15T08:56:03;2.97;;;0.90;;
10987;SDS011;5547;42.672;23.230;2023-04-15T08:59:09;2.22;;;0.80;;
10987;SDS011;5547;42.672;23.230;2023-04-15T09:02:10;4.05;;;1.13;;
10987;SDS011;5547;42.672;23.230;2023-04-15T09:05:11;2.50;;;1.10;;
10987;SDS011;5547;42.672;23.230;2023-04-15T09:08:11;3.90;;;1.20;;
10987;SDS011;5547;42.672;23.230;2023-04-15T09:11:12;2.57;;;1.27;;
10987;SDS011;5547;42.672;23.230;2023-04-15T09:14:13;2.40;;;1.20;;
10987;SDS011;5547;42.672;23.230;2023-04-15T09:17:13;1.75;;;0.70;;
10987;SDS011;5547;42.672;23.230;2023-04-15T09:20:18;2.78;;;1.00;;
10987;SDS011;5547;42.672;23.230;2023-04-15T09:23:19;1.13;;;0.60;;
10987;SDS011;5547;42.672;23.230;2023-04-15T09:26:28;1.60;;;0.70;;
10987;SDS011;5547;42.672;23.230;2023-04-15T09:29:31;1.80;;;0.80;;
10987;SDS011;5547;42.672;23.230;2023-04-15T09:32:31;3.07;;;0.80;;
10987;SDS011;5547;42.672;23.230;2023-04-15T09:35:32;1.33;;;0.60;;
10987;SDS011;5547;42.672;23.230;2023-04-15T09:38:32;1.88;;;0.80;;
10987;SDS011;5547;42.672;23.230;2023-04-15T09:41:33;1.67;;;0.70;;
10987;SDS011;5547;42.672;23.230;2023-04-15T09:44:33;1.37;;;0.60;;
10987;SDS011;5547;42.672;23.230;2023-04-15T09:47:34;2.58;;;0.82;;
10987;SDS011;5547;42.672;23.230;2023-04-15T09:50:34;2.28;;;1.40;;
10987;SDS011;5547;42.672;23.230;2023-04-15T09:53:40;1.67;;;0.80;;
10987;SDS011;5547;42.672;23.230;2023-04-15T09:56:40;1.73;;;0.90;;
10987;SDS011;5547;42.672;23.230;2023-04-15T09:59:41;4.10;;;2.07;;
10987;SDS011;5547;42.672;23.230;2023-04-15T10:02:41;5.57;;;3.00;;
10987;SDS011;5547;42.672;23.230;2023-04-15T10:05:42;1.85;;;1.08;;
10987;SDS011;5547;42.672;23.230;2023-04-15T10:08:43;4.72;;;3.33;;
10987;SDS011;5547;42.672;23.230;2023-04-15T10:11:45;3.40;;;1.23;;
10987;SDS011;5547;42.672;23.230;2023-04-15T10:14:52;2.90;;;0.80;;
10987;SDS011;5547;42.672;23.230;2023-04-15T10:17:55;2.38;;;1.15;;
10987;SDS011;5547;42.672;23.230;2023-04-15T10:20:59;8.90;;;3.10;;
10987;SDS011;5547;42.672;23.230;2023-04-15T10:24:00;2.83;;;1.03;;
10987;SDS011;5547;42.672;23.230;2023-04-15T10:27:02;9.27;;;3.72;;
10987;SDS011;5547;42.672;23.230;2023-04-15T10:30:03;3.20;;;1.70;;
10987;SDS011;5547;42.672;23.230;2023-04-15T10:33:05;5.00;;;2.50;;
10987;SDS011;5547;42.672;23.230;2023-04-15T10:36:07;4.88;;;2.58;;
10987;SDS011;5547;42.672;23.230;2023-04-15T10:42:34;14.02;;;7.38;;
10987;SDS011;5547;42.672;23.230;2023-04-15T10:45:35;6.43;;;3.40;;
10987;SDS011;5547;42.672;23.230;2023-04-15T10:48:36;2.95;;;1.42;;
10987;SDS011;5547;42.672;23.230;2023-04-15T10:51:38;3.47;;;1.37;;
10987;SDS011;5547;42.672;23.230;2023-04-15T10:54:42;3.50;;;1.83;;
10987;SDS011;5547;42.672;23.230;2023-04-15T10:57:44;3.50;;;1.40;;
10987;SDS011;5547;42.672;23.230;2023-04-15T11:00:49;5.45;;;2.30;;
10987;SDS011;5547;42.672;23.230;2023-04-15T11:03:51;2.30;;;1.08;;
10987;SDS011;5547;42.672;23.230;2023-04-15T11:07:03;3.67;;;1.95;;
10987;SDS011;5547;42.672;23.230;2023-04-15T11:10:49;2.67;;;0.88;;
10987;SDS011;5547;42.672;23.230;2023-04-15T11:13:28;6.83;;;2.60;;
10987;SDS011;5547;42.672;23.230;2023-04-15T11:16:37;4.32;;;2.50;;
10987;SDS011;5547;42.672;23.230;2023-04-15T11:19:41;4.88;;;2.08;;
10987;SDS011;5547;42.672;23.230;2023-04-15T11:22:46;2.90;;;1.30;;
10987;SDS011;5547;42.672;23.230;2023-04-15T11:25:47;2.38;;;1.10;;
10987;SDS011;5547;42.672;23.230;2023-04-15T11:28:48;2.43;;;1.03;;
10987;SDS011;5547;42.672;23.230;2023-04-15T11:31:48;3.77;;;1.40;;
10987;SDS011;5547;42.672;23.230;2023-04-15T11:34:50;3.20;;;1.30;;
10987;SDS011;5547;42.672;23.230;2023-04-15T11:37:51;3.03;;;1.55;;
10987;SDS011;5547;42.672;23.230;2023-04-15T11:40:51;2.83;;;1.10;;
10987;SDS011;5547;42.672;23.230;2023-04-15T11:43:51;3.60;;;1.30;;
10987;SDS011;5547;42.672;23.230;2023-04-15T11:46:53;2.90;;;1.00;;
10987;SDS011;5547;42.672;23.230;2023-04-15T11:49:54;2.90;;;1.30;;
10987;SDS011;5547;42.672;23.230;2023-04-15T11:52:55;2.85;;;1.15;;
10987;SDS011;5547;42.672;23.230;2023-04-15T11:55:57;2.10;;;1.20;;
10987;SDS011;5547;42.672;23.230;2023-04-15T11:58:57;3.33;;;1.47;;
10987;SDS011;5547;42.672;23.230;2023-04-15T12:01:58;2.45;;;0.90;;
10987;SDS011;5547;42.672;23.230;2023-04-15T12:05:02;2.33;;;0.80;;
10987;SDS011;5547;42.672;23.230;2023-04-15T12:08:07;2.83;;;0.90;;
10987;SDS011;5547;42.672;23.230;2023-04-15T12:11:08;3.10;;;1.08;;
10987;SDS011;5547;42.672;23.230;2023-04-15T12:17:11;2.60;;;0.80;;
10987;SDS011;5547;42.672;23.230;2023-04-15T12:20:12;2.33;;;0.77;;
10987;SDS011;5547;42.672;23.230;2023-04-15T12:23:12;36.40;;;16.13;;
10987;SDS011;5547;42.672;23.230;2023-04-15T12:26:13;3.73;;;1.50;;
10987;SDS011;5547;42.672;23.230;2023-04-15T12:29:13;2.47;;;1.57;;
10987;SDS011;5547;42.672;23.230;2023-04-15T12:32:15;2.00;;;1.27;;
10987;SDS011;5547;42.672;23.230;2023-04-15T12:35:19;2.55;;;0.90;;
10987;SDS011;5547;42.672;23.230;2023-04-15T12:38:20;2.00;;;0.90;;
10987;SDS011;5547;42.672;23.230;2023-04-15T12:41:21;2.57;;;0.90;;
10987;SDS011;5547;42.672;23.230;2023-04-15T12:44:23;1.83;;;0.70;;
10987;SDS011;5547;42.672;23.230;2023-04-15T12:47:23;2.50;;;1.00;;
10987;SDS011;5547;42.672;23.230;2023-04-15T12:50:24;1.40;;;0.70;;
10987;SDS011;5547;42.672;23.230;2023-04-15T12:53:24;1.25;;;0.60;;
10987;SDS011;5547;42.672;23.230;2023-04-15T12:56:25;1.73;;;0.60;;
10987;SDS011;5547;42.672;23.230;2023-04-15T12:59:26;2.57;;;0.90;;
10987;SDS011;5547;42.672;23.230;2023-04-15T13:02:26;2.77;;;0.87;;
10987;SDS011;5547;42.672;23.230;2023-04-15T13:05:27;1.53;;;0.60;;
10987;SDS011;5547;42.672;23.230;2023-04-15T13:08:28;2.20;;;0.70;;
10987;SDS011;5547;42.672;23.230;2023-04-15T13:11:28;1.47;;;0.80;;
10987;SDS011;5547;42.672;23.230;2023-04-15T13:14:30;1.63;;;0.80;;
10987;SDS011;5547;42.672;23.230;2023-04-15T13:17:30;1.10;;;0.67;;
10987;SDS011;5547;42.672;23.230;2023-04-15T13:20:30;1.83;;;0.90;;
10987;SDS011;5547;42.672;23.230;2023-04-15T13:23:31;2.53;;;0.90;;
10987;SDS011;5547;42.672;23.230;2023-04-15T13:26:31;2.20;;;0.67;;
10987;SDS011;5547;42.672;23.230;2023-04-15T13:29:32;1.87;;;0.80;;
10987;SDS011;5547;42.672;23.230;2023-04-15T13:32:32;1.43;;;0.83;;
10987;SDS011;5547;42.672;23.230;2023-04-15T13:35:32;1.50;;;0.63;;
10987;SDS011;5547;42.672;23.230;2023-04-15T13:38:33;2.83;;;1.00;;
10987;SDS011;5547;42.672;23.230;2023-04-15T13:41:34;1.80;;;0.80;;
10987;SDS011;5547;42.672;23.230;2023-04-15T13:44:34;1.40;;;0.60;;
10987;SDS011;5547;42.672;23.230;2023-04-15T13:47:34;1.48;;;0.70;;
10987;SDS011;5547;42.672;23.230;2023-04-15T13:50:35;2.40;;;0.75;;
10987;SDS011;5547;42.672;23.230;2023-04-15T13:53:36;1.73;;;0.77;;
10987;SDS011;5547;42.672;23.230;2023-04-15T13:56:36;1.93;;;0.80;;
10987;SDS011;5547;42.672;23.230;2023-04-15T13:59:37;2.65;;;1.38;;
10987;SDS011;5547;42.672;23.230;2023-04-15T14:02:38;2.33;;;0.47;;
10987;SDS011;5547;42.672;23.230;2023-04-15T14:05:39;1.67;;;0.63;;
10987;SDS011;5547;42.672;23.230;2023-04-15T14:08:39;2.00;;;1.03;;
10987;SDS011;5547;42.672;23.230;2023-04-15T14:11:40;1.93;;;0.73;;
10987;SDS011;5547;42.672;23.230;2023-04-15T14:14:40;1.45;;;0.68;;
10987;SDS011;5547;42.672;23.230;2023-04-15T14:17:41;1.43;;;0.40;;
10987;SDS011;5547;42.672;23.230;2023-04-15T14:20:41;1.67;;;0.60;;
10987;SDS011;5547;42.672;23.230;2023-04-15T14:23:42;1.00;;;0.50;;
10987;SDS011;5547;42.672;23.230;2023-04-15T14:26:42;1.63;;;0.50;;
10987;SDS011;5547;42.672;23.230;2023-04-15T14:29:43;2.05;;;0.60;;
10987;SDS011;5547;42.672;23.230;2023-04-15T14:32:44;1.57;;;0.67;;
10987;SDS011;5547;42.672;23.230;2023-04-15T14:35:44;1.97;;;0.60;;
10987;SDS011;5547;42.672;23.230;2023-04-15T14:38:44;1.47;;;0.60;;
10987;SDS011;5547;42.672;23.230;2023-04-15T14:41:45;1.60;;;0.60;;
10987;SDS011;5547;42.672;23.230;2023-04-15T14:44:46;2.97;;;0.80;;
10987;SDS011;5547;42.672;23.230;2023-04-15T14:47:46;1.57;;;0.60;;
10987;SDS011;5547;42.672;23.230;2023-04-15T14:50:47;0.87;;;0.50;;
10987;SDS011;5547;42.672;23.230;2023-04-15T14:53:48;2.22;;;0.80;;
10987;SDS011;5547;42.672;23.230;2023-04-15T14:56:48;2.30;;;1.05;;
10987;SDS011;5547;42.672;23.230;2023-04-15T14:59:48;2.17;;;0.90;;
10987;SDS011;5547;42.672;23.230;2023-04-15T15:02:49;2.90;;;0.70;;
10987;SDS011;5547;42.672;23.230;2023-04-15T15:05:49;2.38;;;0.90;;
10987;SDS011;5547;42.672;23.230;2023-04-15T15:08:50;2.10;;;0.70;;
10987;SDS011;5547;42.672;23.230;2023-04-15T15:11:50;2.90;;;0.67;;
10987;SDS011;5547;42.672;23.230;2023-04-15T15:14:51;3.17;;;0.80;;
10987;SDS011;5547;42.672;23.230;2023-04-15T15:17:53;1.60;;;0.90;;
10987;SDS011;5547;42.672;23.230;2023-04-15T15:20:54;2.77;;;0.90;;
10987;SDS011;5547;42.672;23.230;2023-04-15T15:23:54;2.27;;;0.80;;
10987;SDS011;5547;42.672;23.230;2023-04-15T15:26:55;3.07;;;0.70;;
10987;SDS011;5547;42.672;23.230;2023-04-15T15:29:57;5.72;;;3.00;;
10987;SDS011;5547;42.672;23.230;2023-04-15T15:32:57;2.08;;;0.70;;
10987;SDS011;5547;42.672;23.230;2023-04-15T15:35:58;1.93;;;0.60;;
10987;SDS011;5547;42.672;23.230;2023-04-15T15:38:58;1.63;;;0.77;;
10987;SDS011;5547;42.672;23.230;2023-04-15T15:41:59;2.03;;;0.90;;
10987;SDS011;5547;42.672;23.230;2023-04-15T15:45:00;1.60;;;0.57;;
10987;SDS011;5547;42.672;23.230;2023-04-15T15:48:02;2.80;;;0.80;;
10987;SDS011;5547;42.672;23.230;2023-04-15T15:51:04;2.55;;;0.70;;
10987;SDS011;5547;42.672;23.230;2023-04-15T15:54:05;2.43;;;0.80;;
10987;SDS011;5547;42.672;23.230;2023-04-15T15:57:05;1.07;;;0.50;;
10987;SDS011;5547;42.672;23.230;2023-04-15T16:00:06;2.30;;;0.60;;
10987;SDS011;5547;42.672;23.230;2023-04-15T16:03:08;2.10;;;0.60;;
10987;SDS011;5547;42.672;23.230;2023-04-15T16:06:09;1.33;;;0.70;;
10987;SDS011;5547;42.672;23.230;2023-04-15T16:09:09;1.93;;;0.70;;
10987;SDS011;5547;42.672;23.230;2023-04-15T16:12:09;1.85;;;0.90;;
10987;SDS011;5547;42.672;23.230;2023-04-15T16:15:12;1.67;;;0.90;;
10987;SDS011;5547;42.672;23.230;2023-04-15T16:18:13;3.53;;;0.77;;
10987;SDS011;5547;42.672;23.230;2023-04-15T16:21:14;2.00;;;0.95;;
10987;SDS011;5547;42.672;23.230;2023-04-15T16:24:15;2.30;;;1.20;;
10987;SDS011;5547;42.672;23.230;2023-04-15T16:27:15;2.35;;;1.25;;
10987;SDS011;5547;42.672;23.230;2023-04-15T16:30:16;5.50;;;3.10;;
10987;SDS011;5547;42.672;23.230;2023-04-15T16:33:16;5.30;;;3.23;;
10987;SDS011;5547;42.672;23.230;2023-04-15T16:36:17;6.43;;;3.30;;
10987;SDS011;5547;42.672;23.230;2023-04-15T16:39:17;2.63;;;1.77;;
10987;SDS011;5547;42.672;23.230;2023-04-15T16:42:18;2.45;;;1.45;;
10987;SDS011;5547;42.672;23.230;2023-04-15T16:45:19;2.10;;;1.00;;
10987;SDS011;5547;42.672;23.230;2023-04-15T16:48:19;3.60;;;2.40;;
10987;SDS011;5547;42.672;23.230;2023-04-15T16:51:20;3.10;;;1.50;;
10987;SDS011;5547;42.672;23.230;2023-04-15T16:54:20;2.77;;;1.00;;
10987;SDS011;5547;42.672;23.230;2023-04-15T16:57:21;3.40;;;1.10;;
10987;SDS011;5547;42.672;23.230;2023-04-15T17:00:21;2.43;;;0.90;;
10987;SDS011;5547;42.672;23.230;2023-04-15T17:03:21;3.97;;;1.17;;
10987;SDS011;5547;42.672;23.230;2023-04-15T17:06:22;4.37;;;1.87;;
10987;SDS011;5547;42.672;23.230;2023-04-15T17:09:22;3.60;;;1.40;;
10987;SDS011;5547;42.672;23.230;2023-04-15T17:12:23;3.30;;;1.20;;
10987;SDS011;5547;42.672;23.230;2023-04-15T17:15:23;2.23;;;1.10;;
10987;SDS011;5547;42.672;23.230;2023-04-15T17:18:24;2.60;;;1.10;;
10987;SDS011;5547;42.672;23.230;2023-04-15T17:21:24;2.67;;;1.53;;
10987;SDS011;5547;42.672;23.230;2023-04-15T17:24:25;3.70;;;1.50;;
10987;SDS011;5547;42.672;23.230;2023-04-15T17:27:25;4.00;;;1.60;;
10987;SDS011;5547;42.672;23.230;2023-04-15T17:30:27;3.17;;;1.80;;
10987;SDS011;5547;42.672;23.230;2023-04-15T17:33:28;3.20;;;1.70;;
10987;SDS011;5547;42.672;23.230;2023-04-15T17:36:28;4.47;;;2.10;;
10987;SDS011;5547;42.672;23.230;2023-04-15T17:39:29;6.77;;;3.97;;
10987;SDS011;5547;42.672;23.230;2023-04-15T17:42:30;8.20;;;5.57;;
10987;SDS011;5547;42.672;23.230;2023-04-15T17:45:30;6.75;;;4.28;;
10987;SDS011;5547;42.672;23.230;2023-04-15T17:48:31;5.27;;;2.77;;
10987;SDS011;5547;42.672;23.230;2023-04-15T17:51:31;5.00;;;2.40;;
10987;SDS011;5547;42.672;23.230;2023-04-15T17:54:32;3.70;;;2.03;;
10987;SDS011;5547;42.672;23.230;2023-04-15T17:57:32;4.45;;;1.95;;
10987;SDS011;5547;42.672;23.230;2023-04-15T18:00:33;2.87;;;1.80;;
10987;SDS011;5547;42.672;23.230;2023-04-15T18:03:33;3.33;;;1.77;;
10987;SDS011;5547;42.672;23.230;2023-04-15T18:06:34;2.43;;;1.60;;
10987;SDS011;5547;42.672;23.230;2023-04-15T18:09:34;3.33;;;1.40;;
10987;SDS011;5547;42.672;23.230;2023-04-15T18:12:35;3.20;;;1.30;;
10987;SDS011;5547;42.672;23.230;2023-04-15T18:15:36;3.37;;;1.50;;